Historyczne dane pomiarowe

Dodano dane terminowe – wersja testowa.

Dane z okresu 1951-2019

Wersja bazy: 1.34 [2019-03-16, lista zmian], aktualizacja planowana na 2019-04-15

Dane meteo z obszaru Polski uzyskane na podstawie danych udostępnionych przez Instytut Meteorologii i Gospodarki Wodnej – Państwowy Instytut Badawczy.

 

Wybierz Datę:    

       

TemperaturaWilgotnośćWiatrCiśnienieOpadyŚniegCzas trwania zjawisk
 Stacja t tx tn tng RH VA  wxwx mslp ppp RRR   cm mm wxwxwxwxwxwxwx
1994-08-14 15.8 19.5 13.0 11.4 61.5- 3.3 2.0---- 0.0------------
1994-08-13 18.0 23.0 14.9 14.6 83.5- 6.3 3.0---- 2.2------------
1994-08-12 17.4 21.8 15.5 14.4 89.8- 8.0 4.0---- 6.4------------
1994-08-11 19.6 24.3 17.0 16.4 87.8- 5.3 2.7---- 2.4------------
1994-08-10 20.3 27.6 12.7 9.9 67.5- 0.0 2.7---- 2.5------------
1994-08-09 19.7 27.0 18.5 15.7 95.8- 8.0 1.7---- 10.4------------
1994-08-08 23.2 27.9 18.6 17.4 86.0- 8.0 2.3---- 0.4------------
1994-08-07 25.8 31.6 20.6 15.8 56.3- 3.3 0.7---- 0.0------------
1994-08-06 23.0 33.1 14.4 12.5 65.3- 1.7 2.0---- 0.0------------
1994-08-05 23.7 31.0 15.2 13.8 69.3- 0.0 1.7---- 0.0------------
1994-08-04 22.2 29.0 16.4 13.6 74.5- 0.0 2.0---- 0.0------------
1994-08-03 22.3 30.8 19.7 14.8 78.8- 2.7 2.7---- 9.0------------
1994-08-02 25.1 30.2 18.6 14.2 64.8- 2.0 2.0---- 0.0------------
1994-08-01 25.2 34.8 17.5 12.8 56.0- 3.0 1.7---- 0.0------------
1994-07-31 25.0 35.0 15.0 11.4 52.5- 0.0 1.0---- 0.0------------
1994-07-30 25.9 34.8 13.2 10.4 54.8- 0.0 2.3---- 0.0------------
1994-07-29 24.1 33.8 12.7 8.8 52.5- 0.0 1.3---- 0.0------------
1994-07-28 24.5 33.2 13.4 11.1 55.8- 0.0 2.0---- 0.0------------
1994-07-27 22.4 33.4 13.8 9.9 56.3- 1.0 2.0---- 0.0------------
1994-07-26 22.4 32.3 13.7 11.8 53.0- 0.0 2.0---- 0.0------------
1994-07-25 22.5 31.2 11.7 11.4 54.8- 0.3 2.0---- 0.0------------
1994-07-24 20.8 29.9 11.8 7.8 55.0- 0.0 1.3---- 0.0------------
1994-07-23 21.3 28.3 9.4 9.1 60.0- 0.0 1.0---- 0.0------------
1994-07-22 20.9 29.0 9.4 6.8 58.3- 0.0 1.7---- 0.0------------
1994-07-21 18.2 26.2 8.3 7.6 62.8- 0.0 1.7---- 0.0------------
1994-07-20 18.9 24.3 13.1 10.8 62.0- 0.0 2.7---- 0.0------------
1994-07-19 20.1 25.5 14.9 11.1 77.5- 3.7 2.7---- 0.0------------
1994-07-18 21.1 27.5 17.0 14.5 82.3- 4.0 1.0---- 0.0------------
1994-07-17 21.4 29.5 14.6 11.7 73.3- 2.7 2.3---- 2.2------------
1994-07-16 21.2 29.5 13.8 10.6 78.5- 4.0 1.3---- 0.0------------
1994-07-15 22.8 27.5 13.3 11.2 72.8- 0.7 2.0---- 0.0------------
1994-07-14 21.7 28.8 13.1 12.2 71.5- 1.3 1.3---- 0.0------------
1994-07-13 19.8 26.9 11.5 10.0 68.8- 0.3 2.0---- 0.0------------
1994-07-12 19.9 25.3 15.7 12.4 79.5- 3.0 2.7---- 0.0------------
1994-07-11 20.2 24.6 16.5 13.3 84.3- 3.3 2.7---- 0.0------------
1994-07-10 15.5 20.4 12.5 10.2 87.5- 6.3 1.3---- 2.5------------
1994-07-09 15.9 18.3 14.0 10.6 79.0- 8.0 2.3---- 12.0------------
1994-07-08 16.9 20.8 13.9 10.4 75.0- 5.0 3.3---- 0.0------------
1994-07-07 17.6 25.4 10.2 6.7 83.3- 6.3 1.3---- 11.0------------
1994-07-06 20.5 25.5 12.7 7.5 67.0- 1.7 2.7---- 0.0------------
1994-07-05 19.2 24.8 13.5 10.6 79.5- 5.3 1.7---- 0.0------------
1994-07-04 20.2 29.5 9.4 5.3 62.8- 0.0 2.0---- 0.0------------
1994-07-03 19.3 27.4 8.5 6.0 65.3- 0.0 2.0---- 0.0------------
1994-07-02 17.4 24.6 9.0 6.3 67.8- 0.0 2.7---- 0.0------------
1994-07-01 19.9 24.5 18.2 15.5 70.5- 0.0 1.7---- 0.0------------
1994-06-30 22.8 27.0 21.0 19.7 83.5- 5.3 2.7---- 0.0------------
1994-06-29 23.0 30.6 16.0 13.1 71.5- 0.0 1.3---- 0.0------------
1994-06-28 24.0 31.4 17.8 13.8 76.0- 1.3 2.0---- 0.0------------
1994-06-27 25.6 32.0 19.5 14.4 64.0- 0.7 1.0---- 0.0------------
1994-06-26 21.9 30.5 8.1 4.8 65.3- 0.3 2.7---- 0.0------------
1994-06-25 14.7 23.3 3.9 0.7 61.5- 0.0 1.7---- 0.0------------
1994-06-24 15.4 18.9 10.3 5.8 53.8- 0.0 3.3---- 0.0------------
1994-06-23 18.4 22.6 16.5 9.7 61.0- 3.7 3.7---- 0.0------------
1994-06-22 18.4 26.3 8.8 4.7 72.5- 1.0 2.0---- 0.0------------
1994-06-21 15.6 21.3 8.5 4.3 65.5- 0.0 0.7---- 0.0------------
1994-06-20 17.6 22.2 14.4 11.4 68.0- 3.7 3.0---- 0.0------------
1994-06-19 17.9 26.0 11.9 8.6 62.5- 3.3 2.0---- 0.0------------
1994-06-18 13.3 20.0 7.5 2.2 73.3- 3.3 3.7---- 5.6------------
1994-06-17 11.2 15.7 8.8 5.7 80.0- 6.3 2.0---- 1.8------------
1994-06-16 13.3 17.3 9.4 5.4 70.8- 5.3 3.3---- 0.2------------
298.9 ms

 

Źródłem pochodzenia danych jest Instytut Meteorologii i Gospodarki Wodnej – Państwowy Instytut Badawczy. Dane Instytutu Meteorologii i Gospodarki Wodnej – Państwowego Instytutu Badawczego zostały przetworzone.

Dane źródłowe można odnaleźć na stronie https://dane.imgw.pl